sensor_id;sensor_type;location;lat;lon;timestamp;pressure;altitude;pressure_sealevel;temperature;humidity
37972;BME280;23794;48.234;8.344;2023-02-02T00:02:08;95005.75;;;0.99;79.52
37972;BME280;23794;48.234;8.344;2023-02-02T00:04:35;95015.44;;;1.00;79.67
37972;BME280;23794;48.234;8.344;2023-02-02T00:07:02;95001.16;;;1.00;79.89
37972;BME280;23794;48.234;8.344;2023-02-02T00:09:31;95016.41;;;0.96;79.97
37972;BME280;23794;48.234;8.344;2023-02-02T00:11:59;95012.44;;;0.93;80.17
37972;BME280;23794;48.234;8.344;2023-02-02T00:14:26;95012.09;;;0.95;79.74
37972;BME280;23794;48.234;8.344;2023-02-02T00:16:55;95019.41;;;1.03;79.69
37972;BME280;23794;48.234;8.344;2023-02-02T00:19:25;95028.59;;;1.02;80.18
37972;BME280;23794;48.234;8.344;2023-02-02T00:21:53;95026.69;;;0.94;80.40
37972;BME280;23794;48.234;8.344;2023-02-02T00:24:20;95033.69;;;0.95;80.22
37972;BME280;23794;48.234;8.344;2023-02-02T00:26:56;95033.06;;;0.89;80.47
37972;BME280;23794;48.234;8.344;2023-02-02T00:29:28;95020.84;;;0.92;80.45
37972;BME280;23794;48.234;8.344;2023-02-02T00:31:56;95025.75;;;0.89;80.80
37972;BME280;23794;48.234;8.344;2023-02-02T00:34:23;95024.50;;;0.87;80.77
37972;BME280;23794;48.234;8.344;2023-02-02T00:36:51;95028.94;;;0.92;80.82
37972;BME280;23794;48.234;8.344;2023-02-02T00:39:20;95031.66;;;0.92;80.85
37972;BME280;23794;48.234;8.344;2023-02-02T00:41:48;95033.53;;;0.91;80.86
37972;BME280;23794;48.234;8.344;2023-02-02T00:44:15;95035.44;;;0.90;80.71
37972;BME280;23794;48.234;8.344;2023-02-02T00:47:01;95027.66;;;0.89;80.82
37972;BME280;23794;48.234;8.344;2023-02-02T00:49:28;95019.25;;;0.90;81.02
37972;BME280;23794;48.234;8.344;2023-02-02T00:51:58;95023.69;;;0.86;81.11
37972;BME280;23794;48.234;8.344;2023-02-02T00:54:26;95023.56;;;0.92;81.07
37972;BME280;23794;48.234;8.344;2023-02-02T00:56:53;95024.50;;;0.96;80.96
37972;BME280;23794;48.234;8.344;2023-02-02T00:59:20;95037.19;;;0.95;81.00
37972;BME280;23794;48.234;8.344;2023-02-02T01:01:46;95034.78;;;0.94;81.01
37972;BME280;23794;48.234;8.344;2023-02-02T01:04:13;95032.09;;;0.94;80.80
37972;BME280;23794;48.234;8.344;2023-02-02T01:06:40;95034.00;;;0.93;80.66
37972;BME280;23794;48.234;8.344;2023-02-02T01:09:07;95025.44;;;0.91;81.02
37972;BME280;23794;48.234;8.344;2023-02-02T01:11:34;95023.06;;;0.89;81.08
37972;BME280;23794;48.234;8.344;2023-02-02T01:14:01;95027.03;;;0.92;81.00
37972;BME280;23794;48.234;8.344;2023-02-02T01:16:28;95021.94;;;0.99;80.48
37972;BME280;23794;48.234;8.344;2023-02-02T01:18:55;95031.97;;;0.99;80.96
37972;BME280;23794;48.234;8.344;2023-02-02T01:21:22;95029.41;;;1.02;80.68
37972;BME280;23794;48.234;8.344;2023-02-02T01:23:49;95033.69;;;0.95;81.36
37972;BME280;23794;48.234;8.344;2023-02-02T01:26:16;95045.59;;;1.02;81.33
37972;BME280;23794;48.234;8.344;2023-02-02T01:28:44;95037.66;;;0.97;81.15
37972;BME280;23794;48.234;8.344;2023-02-02T01:31:14;95042.91;;;1.02;80.98
37972;BME280;23794;48.234;8.344;2023-02-02T01:33:42;95047.03;;;1.09;80.77
37972;BME280;23794;48.234;8.344;2023-02-02T01:36:15;95050.34;;;1.05;81.05
37972;BME280;23794;48.234;8.344;2023-02-02T01:38:43;95046.22;;;1.08;81.07
37972;BME280;23794;48.234;8.344;2023-02-02T01:41:23;95038.91;;;1.09;80.64
37972;BME280;23794;48.234;8.344;2023-02-02T01:43:54;95041.13;;;1.15;80.38
37972;BME280;23794;48.234;8.344;2023-02-02T01:48:55;95050.97;;;1.11;80.91
37972;BME280;23794;48.234;8.344;2023-02-02T01:51:26;95048.44;;;1.15;80.42
37972;BME280;23794;48.234;8.344;2023-02-02T01:53:56;95038.91;;;1.17;80.56
37972;BME280;23794;48.234;8.344;2023-02-02T01:56:28;95045.88;;;1.18;80.87
37972;BME280;23794;48.234;8.344;2023-02-02T01:58:57;95035.25;;;1.22;80.40
37972;BME280;23794;48.234;8.344;2023-02-02T02:01:25;95040.00;;;1.16;80.82
37972;BME280;23794;48.234;8.344;2023-02-02T02:03:52;95037.47;;;1.20;80.50
37972;BME280;23794;48.234;8.344;2023-02-02T02:06:19;95032.06;;;1.20;80.54
37972;BME280;23794;48.234;8.344;2023-02-02T02:08:56;95028.09;;;1.26;80.40
37972;BME280;23794;48.234;8.344;2023-02-02T02:11:23;95017.47;;;1.30;80.27
37972;BME280;23794;48.234;8.344;2023-02-02T02:13:53;95022.38;;;1.28;80.61
37972;BME280;23794;48.234;8.344;2023-02-02T02:16:55;95018.09;;;1.27;80.26
37972;BME280;23794;48.234;8.344;2023-02-02T02:40:19;95010.00;;;1.27;80.03
37972;BME280;23794;48.234;8.344;2023-02-02T02:42:46;95008.41;;;1.26;80.33
37972;BME280;23794;48.234;8.344;2023-02-02T02:45:17;95010.81;;;1.18;80.29
37972;BME280;23794;48.234;8.344;2023-02-02T02:47:44;95007.94;;;1.15;80.67
37972;BME280;23794;48.234;8.344;2023-02-02T02:50:12;95008.44;;;1.17;80.87
37972;BME280;23794;48.234;8.344;2023-02-02T02:52:40;95006.50;;;1.17;80.97
37972;BME280;23794;48.234;8.344;2023-02-02T02:55:08;95004.16;;;1.16;80.35
37972;BME280;23794;48.234;8.344;2023-02-02T03:06:09;95015.56;;;1.13;80.72
37972;BME280;23794;48.234;8.344;2023-02-02T03:08:45;94989.06;;;1.15;80.46
37972;BME280;23794;48.234;8.344;2023-02-02T03:11:14;95006.38;;;1.14;80.01
37972;BME280;23794;48.234;8.344;2023-02-02T03:13:42;95007.31;;;1.18;80.28
37972;BME280;23794;48.234;8.344;2023-02-02T03:16:10;95017.31;;;1.17;80.35
37972;BME280;23794;48.234;8.344;2023-02-02T03:18:37;95005.69;;;1.26;80.46
37972;BME280;23794;48.234;8.344;2023-02-02T03:21:04;95010.16;;;1.21;80.41
37972;BME280;23794;48.234;8.344;2023-02-02T03:23:31;95004.13;;;1.25;80.51
37972;BME280;23794;48.234;8.344;2023-02-02T03:25:58;95004.16;;;1.16;80.65
37972;BME280;23794;48.234;8.344;2023-02-02T03:28:26;95001.91;;;1.18;80.42
37972;BME280;23794;48.234;8.344;2023-02-02T03:30:53;94994.28;;;1.20;80.40
37972;BME280;23794;48.234;8.344;2023-02-02T03:33:21;95004.91;;;1.16;80.32
37972;BME280;23794;48.234;8.344;2023-02-02T03:35:48;94997.31;;;1.18;80.49
37972;BME280;23794;48.234;8.344;2023-02-02T03:38:15;95000.47;;;1.20;80.50
37972;BME280;23794;48.234;8.344;2023-02-02T03:40:41;95003.50;;;1.19;80.43
37972;BME280;23794;48.234;8.344;2023-02-02T03:43:08;95008.09;;;1.18;80.13
37972;BME280;23794;48.234;8.344;2023-02-02T03:45:35;95000.81;;;1.19;80.22
37972;BME280;23794;48.234;8.344;2023-02-02T03:48:03;94998.41;;;1.17;80.28
37972;BME280;23794;48.234;8.344;2023-02-02T03:50:31;94998.41;;;1.17;80.27
37972;BME280;23794;48.234;8.344;2023-02-02T03:52:58;95004.63;;;1.18;80.27
37972;BME280;23794;48.234;8.344;2023-02-02T03:55:25;95006.22;;;1.19;80.35
37972;BME280;23794;48.234;8.344;2023-02-02T03:57:52;95018.72;;;1.24;80.08
37972;BME280;23794;48.234;8.344;2023-02-02T04:00:19;95020.31;;;1.25;80.30
37972;BME280;23794;48.234;8.344;2023-02-02T04:02:46;95008.72;;;1.24;79.82
37972;BME280;23794;48.234;8.344;2023-02-02T04:05:13;95007.13;;;1.32;79.26
37972;BME280;23794;48.234;8.344;2023-02-02T04:07:40;95014.09;;;1.33;79.70
37972;BME280;23794;48.234;8.344;2023-02-02T04:10:07;95016.03;;;1.32;79.71
37972;BME280;23794;48.234;8.344;2023-02-02T04:12:34;95017.59;;;1.33;79.62
37972;BME280;23794;48.234;8.344;2023-02-02T04:15:00;95016.50;;;1.26;79.65
37972;BME280;23794;48.234;8.344;2023-02-02T04:17:27;95025.56;;;1.30;79.84
37972;BME280;23794;48.234;8.344;2023-02-02T04:19:54;95017.59;;;1.25;79.33
37972;BME280;23794;48.234;8.344;2023-02-02T04:22:24;95034.75;;;1.29;79.55
37972;BME280;23794;48.234;8.344;2023-02-02T04:24:51;95023.31;;;1.32;79.49
37972;BME280;23794;48.234;8.344;2023-02-02T04:27:21;95017.75;;;1.28;79.50
37972;BME280;23794;48.234;8.344;2023-02-02T04:29:47;95027.31;;;1.26;79.85
37972;BME280;23794;48.234;8.344;2023-02-02T04:32:15;95025.22;;;1.31;79.48
37972;BME280;23794;48.234;8.344;2023-02-02T04:34:42;95024.13;;;1.32;79.71
37972;BME280;23794;48.234;8.344;2023-02-02T04:37:09;95027.13;;;1.31;79.32
37972;BME280;23794;48.234;8.344;2023-02-02T04:39:36;95016.16;;;1.27;79.33
37972;BME280;23794;48.234;8.344;2023-02-02T04:42:03;95027.81;;;1.19;80.68
37972;BME280;23794;48.234;8.344;2023-02-02T04:44:30;95023.00;;;1.25;79.93
37972;BME280;23794;48.234;8.344;2023-02-02T04:46:57;95034.63;;;1.25;80.43
37972;BME280;23794;48.234;8.344;2023-02-02T04:49:23;95028.41;;;1.25;80.03
37972;BME280;23794;48.234;8.344;2023-02-02T04:51:50;95023.97;;;1.29;80.02
37972;BME280;23794;48.234;8.344;2023-02-02T04:54:17;95027.41;;;1.38;79.41
37972;BME280;23794;48.234;8.344;2023-02-02T04:56:43;95024.25;;;1.36;79.38
37972;BME280;23794;48.234;8.344;2023-02-02T04:59:10;95032.03;;;1.37;79.19
37972;BME280;23794;48.234;8.344;2023-02-02T05:01:37;95025.34;;;1.44;79.37
37972;BME280;23794;48.234;8.344;2023-02-02T05:04:04;95030.59;;;1.40;79.41
37972;BME280;23794;48.234;8.344;2023-02-02T05:06:30;95027.59;;;1.42;79.36
37972;BME280;23794;48.234;8.344;2023-02-02T05:09:03;95024.09;;;1.41;79.18
37972;BME280;23794;48.234;8.344;2023-02-02T05:11:30;95035.84;;;1.45;79.29
37972;BME280;23794;48.234;8.344;2023-02-02T05:13:56;95040.75;;;1.43;79.25
37972;BME280;23794;48.234;8.344;2023-02-02T05:16:23;95044.25;;;1.44;79.03
37972;BME280;23794;48.234;8.344;2023-02-02T05:18:55;95039.47;;;1.49;79.38
37972;BME280;23794;48.234;8.344;2023-02-02T05:21:22;95034.56;;;1.51;79.10
37972;BME280;23794;48.234;8.344;2023-02-02T05:23:49;95043.47;;;1.43;79.74
37972;BME280;23794;48.234;8.344;2023-02-02T05:26:25;95042.31;;;1.53;79.31
37972;BME280;23794;48.234;8.344;2023-02-02T05:28:52;95043.28;;;1.48;79.54
37972;BME280;23794;48.234;8.344;2023-02-02T05:31:19;95039.94;;;1.43;79.90
37972;BME280;23794;48.234;8.344;2023-02-02T05:33:46;95030.44;;;1.45;79.62
37972;BME280;23794;48.234;8.344;2023-02-02T05:36:14;95048.06;;;1.51;79.67
37972;BME280;23794;48.234;8.344;2023-02-02T05:38:41;95045.16;;;1.57;79.58
37972;BME280;23794;48.234;8.344;2023-02-02T05:41:07;95062.66;;;1.50;79.54
37972;BME280;23794;48.234;8.344;2023-02-02T05:43:34;95056.63;;;1.45;80.04
37972;BME280;23794;48.234;8.344;2023-02-02T05:46:01;95063.28;;;1.56;79.66
37972;BME280;23794;48.234;8.344;2023-02-02T05:48:28;95072.34;;;1.51;79.58
37972;BME280;23794;48.234;8.344;2023-02-02T05:51:19;95071.06;;;1.58;79.27
37972;BME280;23794;48.234;8.344;2023-02-02T05:53:47;95070.88;;;1.63;79.13
37972;BME280;23794;48.234;8.344;2023-02-02T05:56:14;95054.19;;;1.61;78.92
37972;BME280;23794;48.234;8.344;2023-02-02T05:58:42;95055.50;;;1.63;78.97
37972;BME280;23794;48.234;8.344;2023-02-02T06:01:09;95051.50;;;1.61;79.26
37972;BME280;23794;48.234;8.344;2023-02-02T06:03:36;95055.16;;;1.65;79.18
37972;BME280;23794;48.234;8.344;2023-02-02T06:06:03;95066.44;;;1.67;79.14
37972;BME280;23794;48.234;8.344;2023-02-02T06:08:33;95064.66;;;1.71;78.91
37972;BME280;23794;48.234;8.344;2023-02-02T06:11:08;95063.25;;;1.65;79.05
37972;BME280;23794;48.234;8.344;2023-02-02T06:13:35;95081.06;;;1.66;78.93
37972;BME280;23794;48.234;8.344;2023-02-02T06:16:02;95081.34;;;1.73;78.89
37972;BME280;23794;48.234;8.344;2023-02-02T06:18:29;95078.03;;;1.67;78.83
37972;BME280;23794;48.234;8.344;2023-02-02T06:20:57;95077.88;;;1.64;78.83
37972;BME280;23794;48.234;8.344;2023-02-02T06:23:24;95079.78;;;1.63;78.80
37972;BME280;23794;48.234;8.344;2023-02-02T06:25:50;95067.06;;;1.64;78.96
37972;BME280;23794;48.234;8.344;2023-02-02T06:28:17;95072.47;;;1.64;79.03
37972;BME280;23794;48.234;8.344;2023-02-02T06:30:44;95077.41;;;1.62;78.94
37972;BME280;23794;48.234;8.344;2023-02-02T06:33:11;95079.97;;;1.49;79.75
37972;BME280;23794;48.234;8.344;2023-02-02T06:35:38;95079.66;;;1.51;79.53
37972;BME280;23794;48.234;8.344;2023-02-02T06:38:04;95081.88;;;1.58;79.07
37972;BME280;23794;48.234;8.344;2023-02-02T06:40:31;95095.69;;;1.56;79.15
37972;BME280;23794;48.234;8.344;2023-02-02T06:42:59;95094.56;;;1.57;79.14
37972;BME280;23794;48.234;8.344;2023-02-02T06:45:27;95093.47;;;1.49;80.09
37972;BME280;23794;48.234;8.344;2023-02-02T06:47:58;95109.34;;;1.51;80.03
37972;BME280;23794;48.234;8.344;2023-02-02T06:50:26;95106.50;;;1.47;80.43
37972;BME280;23794;48.234;8.344;2023-02-02T06:52:52;95110.63;;;1.53;80.16
37972;BME280;23794;48.234;8.344;2023-02-02T06:55:19;95118.56;;;1.59;79.57
37972;BME280;23794;48.234;8.344;2023-02-02T06:57:46;95121.75;;;1.52;80.08
37972;BME280;23794;48.234;8.344;2023-02-02T07:00:13;95117.44;;;1.51;80.19
37972;BME280;23794;48.234;8.344;2023-02-02T07:02:44;95104.63;;;1.48;80.44
37972;BME280;23794;48.234;8.344;2023-02-02T07:05:11;95103.97;;;1.42;80.55
37972;BME280;23794;48.234;8.344;2023-02-02T07:07:38;95112.84;;;1.43;80.83
37972;BME280;23794;48.234;8.344;2023-02-02T07:10:04;95108.75;;;1.45;80.93
37972;BME280;23794;48.234;8.344;2023-02-02T07:12:31;95110.47;;;1.41;81.18
37972;BME280;23794;48.234;8.344;2023-02-02T07:14:58;95108.59;;;1.42;81.23
37972;BME280;23794;48.234;8.344;2023-02-02T07:17:25;95118.59;;;1.41;81.34
37972;BME280;23794;48.234;8.344;2023-02-02T07:19:51;95102.88;;;1.43;81.03
37972;BME280;23794;48.234;8.344;2023-02-02T07:22:18;95115.09;;;1.41;81.11
37972;BME280;23794;48.234;8.344;2023-02-02T07:24:45;95110.31;;;1.46;80.99
37972;BME280;23794;48.234;8.344;2023-02-02T07:27:12;95109.41;;;1.33;81.13
37972;BME280;23794;48.234;8.344;2023-02-02T07:29:39;95110.34;;;1.37;80.94
37972;BME280;23794;48.234;8.344;2023-02-02T07:32:06;95115.56;;;1.43;81.16
37972;BME280;23794;48.234;8.344;2023-02-02T07:34:32;95108.28;;;1.43;81.01
37972;BME280;23794;48.234;8.344;2023-02-02T07:36:59;95111.13;;;1.38;81.12
37972;BME280;23794;48.234;8.344;2023-02-02T07:39:25;95110.16;;;1.43;81.31
37972;BME280;23794;48.234;8.344;2023-02-02T07:41:52;95112.72;;;1.48;80.76
37972;BME280;23794;48.234;8.344;2023-02-02T07:44:29;95121.59;;;1.48;80.25
37972;BME280;23794;48.234;8.344;2023-02-02T07:46:56;95119.22;;;1.47;80.34
37972;BME280;23794;48.234;8.344;2023-02-02T07:49:22;95123.50;;;1.48;80.69
37972;BME280;23794;48.234;8.344;2023-02-02T07:51:49;95121.91;;;1.56;80.14
37972;BME280;23794;48.234;8.344;2023-02-02T07:54:16;95125.41;;;1.56;80.34
37972;BME280;23794;48.234;8.344;2023-02-02T07:56:42;95119.69;;;1.58;80.34
37972;BME280;23794;48.234;8.344;2023-02-02T07:59:09;95121.91;;;1.64;80.42
37972;BME280;23794;48.234;8.344;2023-02-02T08:01:37;95126.50;;;1.64;80.33
37972;BME280;23794;48.234;8.344;2023-02-02T08:04:03;95135.72;;;1.72;79.95
37972;BME280;23794;48.234;8.344;2023-02-02T08:06:35;95130.94;;;1.68;80.03
37972;BME280;23794;48.234;8.344;2023-02-02T08:09:05;95131.91;;;1.64;79.82
37972;BME280;23794;48.234;8.344;2023-02-02T08:11:34;95139.22;;;1.54;79.73
37972;BME280;23794;48.234;8.344;2023-02-02T08:14:02;95132.69;;;1.56;80.10
37972;BME280;23794;48.234;8.344;2023-02-02T08:16:30;95125.41;;;1.47;80.42
37972;BME280;23794;48.234;8.344;2023-02-02T08:18:57;95128.91;;;1.48;80.63
37972;BME280;23794;48.234;8.344;2023-02-02T08:21:24;95137.47;;;1.59;80.21
37972;BME280;23794;48.234;8.344;2023-02-02T08:23:52;95127.13;;;1.61;80.21
37972;BME280;23794;48.234;8.344;2023-02-02T08:26:21;95124.13;;;1.53;80.27
37972;BME280;23794;48.234;8.344;2023-02-02T08:28:57;95133.50;;;1.56;80.37
37972;BME280;23794;48.234;8.344;2023-02-02T08:31:36;95118.88;;;1.57;80.61
37972;BME280;23794;48.234;8.344;2023-02-02T08:34:03;95112.06;;;1.60;80.50
37972;BME280;23794;48.234;8.344;2023-02-02T08:36:31;95104.72;;;1.60;80.50
37972;BME280;23794;48.234;8.344;2023-02-02T08:39:03;95101.69;;;1.62;80.51
37972;BME280;23794;48.234;8.344;2023-02-02T08:41:31;95103.44;;;1.66;80.63
37972;BME280;23794;48.234;8.344;2023-02-02T08:43:58;95109.06;;;1.52;81.06
37972;BME280;23794;48.234;8.344;2023-02-02T08:46:25;95117.91;;;1.62;80.94
37972;BME280;23794;48.234;8.344;2023-02-02T08:48:52;95100.88;;;1.70;80.93
37972;BME280;23794;48.234;8.344;2023-02-02T08:51:19;95104.22;;;1.76;80.35
37972;BME280;23794;48.234;8.344;2023-02-02T08:53:46;95104.38;;;1.79;80.54
37972;BME280;23794;48.234;8.344;2023-02-02T08:56:20;95112.97;;;1.73;80.35
37972;BME280;23794;48.234;8.344;2023-02-02T08:58:55;95118.19;;;1.87;79.90
37972;BME280;23794;48.234;8.344;2023-02-02T09:01:28;95116.44;;;1.82;80.23
37972;BME280;23794;48.234;8.344;2023-02-02T09:03:57;95119.63;;;1.84;80.06
37972;BME280;23794;48.234;8.344;2023-02-02T09:06:28;95123.09;;;1.93;80.02
37972;BME280;23794;48.234;8.344;2023-02-02T09:08:55;95131.16;;;2.02;79.73
37972;BME280;23794;48.234;8.344;2023-02-02T09:11:22;95133.03;;;2.10;79.56
37972;BME280;23794;48.234;8.344;2023-02-02T09:13:56;95143.81;;;2.19;79.05
37972;BME280;23794;48.234;8.344;2023-02-02T09:16:24;95147.63;;;2.18;78.94
37972;BME280;23794;48.234;8.344;2023-02-02T09:18:51;95155.00;;;2.09;78.64
37972;BME280;23794;48.234;8.344;2023-02-02T09:21:19;95152.28;;;2.09;79.00
37972;BME280;23794;48.234;8.344;2023-02-02T09:23:49;95169.28;;;2.09;78.69
37972;BME280;23794;48.234;8.344;2023-02-02T09:26:23;95177.56;;;2.13;78.88
37972;BME280;23794;48.234;8.344;2023-02-02T09:28:53;95175.47;;;2.19;78.83
37972;BME280;23794;48.234;8.344;2023-02-02T09:31:20;95177.06;;;2.20;78.48
37972;BME280;23794;48.234;8.344;2023-02-02T09:33:48;95193.59;;;2.18;78.89
37972;BME280;23794;48.234;8.344;2023-02-02T09:36:19;95199.66;;;2.15;78.84
37972;BME280;23794;48.234;8.344;2023-02-02T09:38:47;95199.16;;;2.22;78.78
37972;BME280;23794;48.234;8.344;2023-02-02T09:50:20;95222.38;;;2.23;78.05
37972;BME280;23794;48.234;8.344;2023-02-02T09:52:55;95229.22;;;2.20;78.58
37972;BME280;23794;48.234;8.344;2023-02-02T10:00:36;95223.47;;;2.22;78.58
37972;BME280;23794;48.234;8.344;2023-02-02T10:03:13;95227.78;;;2.23;78.44
37972;BME280;23794;48.234;8.344;2023-02-02T10:05:46;95224.44;;;2.26;78.25
37972;BME280;23794;48.234;8.344;2023-02-02T10:08:22;95214.25;;;2.31;77.55
37972;BME280;23794;48.234;8.344;2023-02-02T10:11:07;95214.84;;;2.37;77.97
37972;BME280;23794;48.234;8.344;2023-02-02T10:13:39;95201.91;;;2.52;77.12
37972;BME280;23794;48.234;8.344;2023-02-02T10:16:15;95205.22;;;2.66;76.56
37972;BME280;23794;48.234;8.344;2023-02-02T10:18:56;95216.16;;;2.70;76.16
37972;BME280;23794;48.234;8.344;2023-02-02T10:22:09;95203.00;;;2.89;76.78
37972;BME280;23794;48.234;8.344;2023-02-02T10:24:38;95208.22;;;2.94;76.00
37972;BME280;23794;48.234;8.344;2023-02-02T10:27:21;95215.50;;;3.03;76.06
37972;BME280;23794;48.234;8.344;2023-02-02T10:30:01;95207.84;;;3.05;75.76
37972;BME280;23794;48.234;8.344;2023-02-02T10:32:33;95209.19;;;2.90;75.53
37972;BME280;23794;48.234;8.344;2023-02-02T10:35:29;95215.91;;;2.92;76.11
37972;BME280;23794;48.234;8.344;2023-02-02T10:38:30;95209.59;;;2.79;76.08
37972;BME280;23794;48.234;8.344;2023-02-02T10:41:28;95209.91;;;2.78;75.46
37972;BME280;23794;48.234;8.344;2023-02-02T10:44:08;95228.25;;;2.72;76.86
37972;BME280;23794;48.234;8.344;2023-02-02T10:46:42;95237.28;;;2.85;76.50
37972;BME280;23794;48.234;8.344;2023-02-02T10:57:47;95241.22;;;2.88;77.04
37972;BME280;23794;48.234;8.344;2023-02-02T11:00:21;95239.81;;;2.81;77.24
37972;BME280;23794;48.234;8.344;2023-02-02T11:02:50;95246.84;;;2.74;77.64
37972;BME280;23794;48.234;8.344;2023-02-02T11:05:23;95247.19;;;2.63;77.92
37972;BME280;23794;48.234;8.344;2023-02-02T11:08:15;95246.41;;;2.63;77.66
37972;BME280;23794;48.234;8.344;2023-02-02T11:10:47;95228.88;;;2.69;77.84
37972;BME280;23794;48.234;8.344;2023-02-02T11:13:30;95228.78;;;2.57;78.30
37972;BME280;23794;48.234;8.344;2023-02-02T11:18:41;95196.09;;;2.71;78.53
37972;BME280;23794;48.234;8.344;2023-02-02T11:26:23;95217.50;;;3.15;77.20
37972;BME280;23794;48.234;8.344;2023-02-02T11:28:52;95221.06;;;3.06;77.53
37972;BME280;23794;48.234;8.344;2023-02-02T11:31:30;95222.16;;;3.56;77.48
37972;BME280;23794;48.234;8.344;2023-02-02T11:34:27;95215.66;;;3.70;76.59
37972;BME280;23794;48.234;8.344;2023-02-02T11:39:26;95223.28;;;3.55;76.31
37972;BME280;23794;48.234;8.344;2023-02-02T11:42:25;95215.47;;;3.54;76.28
37972;BME280;23794;48.234;8.344;2023-02-02T11:44:58;95216.41;;;3.58;76.58
37972;BME280;23794;48.234;8.344;2023-02-02T11:47:32;95227.66;;;3.48;76.09
37972;BME280;23794;48.234;8.344;2023-02-02T11:50:00;95225.69;;;3.27;76.85
37972;BME280;23794;48.234;8.344;2023-02-02T11:52:31;95231.25;;;3.31;76.73
37972;BME280;23794;48.234;8.344;2023-02-02T11:55:00;95232.53;;;3.33;77.17
37972;BME280;23794;48.234;8.344;2023-02-02T11:57:28;95230.13;;;3.32;76.86
37972;BME280;23794;48.234;8.344;2023-02-02T12:00:15;95235.13;;;3.21;76.59
37972;BME280;23794;48.234;8.344;2023-02-02T12:02:47;95226.31;;;3.11;76.80
37972;BME280;23794;48.234;8.344;2023-02-02T12:07:48;95231.53;;;3.38;76.50
37972;BME280;23794;48.234;8.344;2023-02-02T12:10:26;95236.63;;;3.39;76.69
37972;BME280;23794;48.234;8.344;2023-02-02T12:16:23;95231.53;;;3.38;76.62
37972;BME280;23794;48.234;8.344;2023-02-02T12:24:34;95237.97;;;3.24;76.20
37972;BME280;23794;48.234;8.344;2023-02-02T12:32:24;95233.50;;;3.28;75.97
37972;BME280;23794;48.234;8.344;2023-02-02T12:43:47;95225.44;;;3.20;76.47
37972;BME280;23794;48.234;8.344;2023-02-02T12:49:24;95210.72;;;3.30;76.57
37972;BME280;23794;48.234;8.344;2023-02-02T12:55:13;95206.81;;;3.18;76.26
37972;BME280;23794;48.234;8.344;2023-02-02T13:03:27;95216.31;;;3.24;76.07
37972;BME280;23794;48.234;8.344;2023-02-02T13:06:13;95223.13;;;3.09;76.05
37972;BME280;23794;48.234;8.344;2023-02-02T13:08:59;95221.44;;;2.96;76.94
37972;BME280;23794;48.234;8.344;2023-02-02T13:14:12;95220.03;;;2.90;77.59
37972;BME280;23794;48.234;8.344;2023-02-02T13:16:48;95237.28;;;2.76;77.55
37972;BME280;23794;48.234;8.344;2023-02-02T13:19:40;95237.91;;;2.82;78.09
37972;BME280;23794;48.234;8.344;2023-02-02T13:22:12;95235.84;;;2.79;78.00
37972;BME280;23794;48.234;8.344;2023-02-02T13:24:46;95242.84;;;2.80;77.74
37972;BME280;23794;48.234;8.344;2023-02-02T13:27:17;95238.06;;;2.86;78.03
37972;BME280;23794;48.234;8.344;2023-02-02T13:30:08;95237.97;;;2.73;78.21
37972;BME280;23794;48.234;8.344;2023-02-02T13:32:38;95254.06;;;2.61;79.02
37972;BME280;23794;48.234;8.344;2023-02-02T13:35:19;95254.19;;;2.73;78.71
37972;BME280;23794;48.234;8.344;2023-02-02T13:40:37;95250.34;;;2.74;78.52
37972;BME280;23794;48.234;8.344;2023-02-02T13:43:32;95256.38;;;2.80;78.71
37972;BME280;23794;48.234;8.344;2023-02-02T13:49:33;95255.59;;;2.79;78.98
37972;BME280;23794;48.234;8.344;2023-02-02T14:00:24;95261.09;;;2.92;78.97
37972;BME280;23794;48.234;8.344;2023-02-02T14:02:56;95265.53;;;2.96;78.25
37972;BME280;23794;48.234;8.344;2023-02-02T14:05:30;95257.84;;;3.07;78.37
37972;BME280;23794;48.234;8.344;2023-02-02T14:08:15;95266.00;;;2.99;78.70
37972;BME280;23794;48.234;8.344;2023-02-02T14:13:23;95257.00;;;2.86;78.46
37972;BME280;23794;48.234;8.344;2023-02-02T14:16:42;95268.59;;;2.86;78.97
37972;BME280;23794;48.234;8.344;2023-02-02T14:24:50;95280.88;;;2.84;79.16
37972;BME280;23794;48.234;8.344;2023-02-02T14:37:41;95292.22;;;2.77;78.89
37972;BME280;23794;48.234;8.344;2023-02-02T14:40:56;95305.75;;;2.68;79.46
37972;BME280;23794;48.234;8.344;2023-02-02T14:43:32;95300.81;;;2.70;79.50
37972;BME280;23794;48.234;8.344;2023-02-02T14:48:46;95305.94;;;2.63;79.53
37972;BME280;23794;48.234;8.344;2023-02-02T14:51:21;95302.47;;;2.54;80.18
37972;BME280;23794;48.234;8.344;2023-02-02T14:53:53;95301.19;;;2.51;80.13
37972;BME280;23794;48.234;8.344;2023-02-02T14:59:04;95301.81;;;2.57;80.31
37972;BME280;23794;48.234;8.344;2023-02-02T15:01:34;95314.38;;;2.53;80.61
37972;BME280;23794;48.234;8.344;2023-02-02T15:04:23;95316.00;;;2.45;80.62
37972;BME280;23794;48.234;8.344;2023-02-02T15:06:50;95322.38;;;2.40;80.78
37972;BME280;23794;48.234;8.344;2023-02-02T15:14:49;95316.84;;;2.28;81.57
37972;BME280;23794;48.234;8.344;2023-02-02T15:20:29;95323.00;;;2.37;81.38
37972;BME280;23794;48.234;8.344;2023-02-02T15:25:54;95318.72;;;2.36;81.90
37972;BME280;23794;48.234;8.344;2023-02-02T15:28:28;95327.78;;;2.40;81.53
37972;BME280;23794;48.234;8.344;2023-02-02T15:31:06;95322.53;;;2.44;80.77
37972;BME280;23794;48.234;8.344;2023-02-02T15:33:43;95330.50;;;2.40;81.37
37972;BME280;23794;48.234;8.344;2023-02-02T15:36:11;95328.72;;;2.44;81.60
37972;BME280;23794;48.234;8.344;2023-02-02T15:38:40;95323.16;;;2.49;81.07
37972;BME280;23794;48.234;8.344;2023-02-02T15:43:44;95329.69;;;2.48;81.04
37972;BME280;23794;48.234;8.344;2023-02-02T15:46:13;95335.88;;;2.49;81.08
37972;BME280;23794;48.234;8.344;2023-02-02T15:48:44;95344.63;;;2.55;81.32
37972;BME280;23794;48.234;8.344;2023-02-02T15:51:15;95344.50;;;2.42;80.93
37972;BME280;23794;48.234;8.344;2023-02-02T15:58:51;95343.06;;;2.27;82.02
37972;BME280;23794;48.234;8.344;2023-02-02T16:01:20;95361.06;;;2.23;81.80
37972;BME280;23794;48.234;8.344;2023-02-02T16:03:52;95358.34;;;2.23;81.87
37972;BME280;23794;48.234;8.344;2023-02-02T16:06:21;95356.41;;;2.32;81.99
37972;BME280;23794;48.234;8.344;2023-02-02T16:08:48;95359.94;;;2.33;82.05
37972;BME280;23794;48.234;8.344;2023-02-02T16:11:18;95365.97;;;2.30;81.79
37972;BME280;23794;48.234;8.344;2023-02-02T16:14:05;95366.47;;;2.23;81.79